createdAt,value
2023-01-04T00:00:17.374Z,2.6
2023-01-04T00:01:18.321Z,2.4
2023-01-04T00:02:19.455Z,2.4
2023-01-04T00:03:20.473Z,2.4
2023-01-04T00:04:21.368Z,2.5
2023-01-04T00:05:22.371Z,2.5
2023-01-04T00:06:23.426Z,2.5
2023-01-04T00:07:24.387Z,2.5
2023-01-04T00:08:25.354Z,2.5
2023-01-04T00:09:26.449Z,2.5
2023-01-04T00:10:27.466Z,2.5
2023-01-04T00:11:28.367Z,2.6
2023-01-04T00:12:29.415Z,2.7
2023-01-04T00:13:30.392Z,2.8
2023-01-04T00:14:31.450Z,3
2023-01-04T00:15:32.437Z,3
2023-01-04T00:16:33.414Z,3
2023-01-04T00:17:34.386Z,3
2023-01-04T00:18:35.352Z,3
2023-01-04T00:19:36.387Z,3.1
2023-01-04T00:20:37.389Z,3
2023-01-04T00:21:38.348Z,3
2023-01-04T00:22:39.407Z,3
2023-01-04T00:23:40.372Z,3
2023-01-04T00:24:41.427Z,3.1
2023-01-04T00:25:42.387Z,3.1
2023-01-04T00:26:43.382Z,3.1
2023-01-04T00:27:44.364Z,3.1
2023-01-04T00:28:50.175Z,3.2
2023-01-04T00:29:46.405Z,3.2
2023-01-04T00:30:47.420Z,3.2
2023-01-04T00:31:48.482Z,3.2
2023-01-04T00:32:49.308Z,3.2
2023-01-04T00:33:50.633Z,3.3
2023-01-04T00:34:51.347Z,3.2
2023-01-04T00:35:52.388Z,3.2
2023-01-04T00:36:53.367Z,3.1
2023-01-04T00:37:54.364Z,3
2023-01-04T00:38:55.385Z,3
2023-01-04T00:39:56.405Z,3
2023-01-04T00:40:57.387Z,3
2023-01-04T00:42:00.024Z,3
2023-01-04T00:42:59.407Z,3
2023-01-04T00:44:00.411Z,3.1
2023-01-04T00:45:01.413Z,3.1
2023-01-04T00:46:02.424Z,3.1
2023-01-04T00:47:03.346Z,3.1
2023-01-04T00:48:04.370Z,3.1
2023-01-04T00:49:05.397Z,3
2023-01-04T00:50:06.445Z,3
2023-01-04T00:51:07.389Z,3
2023-01-04T00:52:08.385Z,3
2023-01-04T00:53:09.385Z,3
2023-01-04T00:54:10.386Z,2.9
2023-01-04T00:55:11.414Z,2.9
2023-01-04T00:56:12.387Z,2.9
2023-01-04T00:57:13.446Z,3
2023-01-04T00:58:14.345Z,3
2023-01-04T00:59:15.406Z,3
2023-01-04T01:00:16.404Z,3
2023-01-04T01:01:17.432Z,2.9
2023-01-04T01:02:18.542Z,2.8
2023-01-04T01:03:19.543Z,2.8
2023-01-04T01:04:20.490Z,2.8
2023-01-04T01:05:21.374Z,2.7
2023-01-04T01:06:22.412Z,2.8
2023-01-04T01:07:23.433Z,2.8
2023-01-04T01:08:24.393Z,2.9
2023-01-04T01:09:25.385Z,2.9
2023-01-04T01:10:26.360Z,3
2023-01-04T01:11:27.545Z,3
2023-01-04T01:12:28.563Z,3
2023-01-04T01:13:29.408Z,3
2023-01-04T01:14:30.386Z,3
2023-01-04T01:15:31.459Z,2.9
2023-01-04T01:16:53.463Z,2.9
2023-01-04T01:17:33.426Z,2.9
2023-01-04T01:18:34.385Z,3
2023-01-04T01:19:35.386Z,3
2023-01-04T01:20:36.386Z,3
2023-01-04T01:21:37.431Z,3
2023-01-04T01:22:38.410Z,3
2023-01-04T01:23:39.375Z,3
2023-01-04T01:24:40.388Z,3
2023-01-04T01:25:41.427Z,3
2023-01-04T01:26:42.406Z,3
2023-01-04T01:27:43.394Z,3
2023-01-04T01:28:44.399Z,3
2023-01-04T01:29:45.393Z,3
2023-01-04T01:30:46.430Z,3
2023-01-04T01:31:47.474Z,3
2023-01-04T01:32:48.420Z,3
2023-01-04T01:33:49.386Z,3
2023-01-04T01:34:50.388Z,3.1
2023-01-04T01:35:51.407Z,3.1
2023-01-04T01:36:52.411Z,3.1
2023-01-04T01:37:53.412Z,3.1
2023-01-04T01:38:54.412Z,3.1
2023-01-04T01:39:55.434Z,3.1
2023-01-04T01:40:56.389Z,3.1
2023-01-04T01:41:57.442Z,3
2023-01-04T01:42:58.441Z,3
2023-01-04T01:43:59.425Z,3
2023-01-04T01:45:00.409Z,3
2023-01-04T01:46:01.437Z,3
2023-01-04T01:47:02.482Z,3
2023-01-04T01:48:03.386Z,2.9
2023-01-04T01:49:04.408Z,2.9
2023-01-04T01:50:05.410Z,3
2023-01-04T01:51:06.410Z,3
2023-01-04T01:52:07.445Z,3
2023-01-04T01:53:08.387Z,3
2023-01-04T01:54:09.449Z,3
2023-01-04T01:55:10.453Z,3
2023-01-04T01:56:11.427Z,3
2023-01-04T01:57:12.406Z,3
2023-01-04T01:58:13.428Z,3
2023-01-04T01:59:14.414Z,3
2023-01-04T02:00:15.444Z,3
2023-01-04T02:01:16.560Z,3
2023-01-04T02:02:17.630Z,2.9
2023-01-04T02:03:18.516Z,2.9
2023-01-04T02:07:24.477Z,2.8
2023-01-04T02:08:25.896Z,2.8
2023-01-04T02:09:27.478Z,2.8
2023-01-04T02:10:28.443Z,2.8
2023-01-04T02:11:29.434Z,2.8
2023-01-04T02:12:30.435Z,2.8
2023-01-04T02:13:31.409Z,2.8
2023-01-04T02:14:32.435Z,2.9
2023-01-04T02:15:33.444Z,2.9
2023-01-04T02:16:34.478Z,2.9
2023-01-04T02:17:35.557Z,3
2023-01-04T02:18:36.405Z,3
2023-01-04T02:19:37.415Z,3
2023-01-04T02:20:38.424Z,3.1
2023-01-04T02:21:39.424Z,3.1
2023-01-04T02:22:40.496Z,3.1
2023-01-04T02:23:41.426Z,3.1
2023-01-04T02:24:42.421Z,3.1
2023-01-04T02:25:43.453Z,3.1
2023-01-04T02:26:44.438Z,3.1
2023-01-04T02:27:45.434Z,3.1
2023-01-04T02:28:46.426Z,3.1
2023-01-04T02:29:47.413Z,3.2
2023-01-04T02:30:48.480Z,3.2
2023-01-04T02:31:49.522Z,3.2
2023-01-04T02:32:50.434Z,3.1
2023-01-04T02:33:51.419Z,3.1
2023-01-04T02:34:58.422Z,3.1
2023-01-04T02:35:53.420Z,3.1
2023-01-04T02:36:54.443Z,3.1
2023-01-04T02:37:55.460Z,3.1
2023-01-04T02:38:56.476Z,3.1
2023-01-04T02:39:57.593Z,3.1
2023-01-04T02:40:58.462Z,3.2
2023-01-04T02:41:59.478Z,3.1
2023-01-04T02:43:00.462Z,3.1
2023-01-04T02:44:01.495Z,3.1
2023-01-04T02:45:02.575Z,3.1
2023-01-04T02:46:03.507Z,3.2
2023-01-04T02:47:04.530Z,3.2
2023-01-04T02:48:05.479Z,3.2
2023-01-04T02:49:06.433Z,3.2
2023-01-04T02:50:07.415Z,3.2
2023-01-04T02:51:08.446Z,3.2
2023-01-04T02:52:09.420Z,3.1
2023-01-04T02:53:10.457Z,2.9
2023-01-04T02:54:11.440Z,2.9
2023-01-04T02:55:12.420Z,2.8
2023-01-04T02:56:13.485Z,2.8
2023-01-04T02:57:14.462Z,2.8
2023-01-04T02:58:15.462Z,2.9
2023-01-04T02:59:16.488Z,2.9
2023-01-04T03:00:17.435Z,2.9
2023-01-04T03:01:18.652Z,2.9
2023-01-04T03:02:19.583Z,2.9
2023-01-04T03:03:20.579Z,2.9
2023-01-04T03:04:21.455Z,2.9
2023-01-04T03:05:22.440Z,2.8
2023-01-04T03:06:23.441Z,2.8
2023-01-04T03:07:24.419Z,2.8
2023-01-04T03:08:25.491Z,2.7
2023-01-04T03:09:26.481Z,2.7
2023-01-04T03:10:27.455Z,2.6
2023-01-04T03:11:28.502Z,2.6
2023-01-04T03:12:29.464Z,2.6
2023-01-04T03:13:30.454Z,2.6
2023-01-04T03:14:33.481Z,2.6
2023-01-04T03:15:32.503Z,2.6
2023-01-04T03:16:33.487Z,2.6
2023-01-04T03:17:34.421Z,2.6
2023-01-04T03:18:35.434Z,2.6
2023-01-04T03:19:36.424Z,2.5
2023-01-04T03:20:37.421Z,2.5
2023-01-04T03:21:38.436Z,2.5
2023-01-04T03:22:39.515Z,2.4
2023-01-04T03:23:40.538Z,2.4
2023-01-04T03:24:41.454Z,2.4
2023-01-04T03:25:42.496Z,2.4
2023-01-04T03:26:43.483Z,2.4
2023-01-04T03:27:44.496Z,2.4
2023-01-04T03:28:45.537Z,2.4
2023-01-04T03:29:46.455Z,2.4
2023-01-04T03:30:47.459Z,2.4
2023-01-04T03:31:48.561Z,2.4
2023-01-04T03:32:49.483Z,2.3
2023-01-04T03:33:50.556Z,2.3
2023-01-04T03:34:51.440Z,2.2
2023-01-04T03:35:52.475Z,2
2023-01-04T03:36:53.455Z,2
2023-01-04T03:37:54.467Z,2
2023-01-04T03:38:55.521Z,1.9
2023-01-04T03:39:56.463Z,2
2023-01-04T03:40:57.460Z,2
2023-01-04T03:41:58.499Z,2
2023-01-04T03:42:59.496Z,1.9
2023-01-04T03:44:00.484Z,1.9
2023-01-04T03:45:06.124Z,1.9
2023-01-04T03:46:02.494Z,1.9
2023-01-04T03:47:03.512Z,2
2023-01-04T03:48:04.472Z,2
2023-01-04T03:49:05.437Z,2.1
2023-01-04T03:50:06.495Z,2.1
2023-01-04T03:51:07.494Z,2.1
2023-01-04T03:52:08.431Z,2
2023-01-04T03:53:09.461Z,2
2023-01-04T03:54:10.512Z,2
2023-01-04T03:55:11.455Z,1.9
2023-01-04T03:56:12.497Z,1.9
2023-01-04T03:57:13.491Z,1.9
2023-01-04T03:58:14.456Z,1.9
2023-01-04T03:59:15.473Z,1.9
2023-01-04T04:00:16.474Z,1.8
2023-01-04T04:01:17.712Z,1.8
2023-01-04T04:02:18.532Z,1.8
2023-01-04T04:03:19.474Z,1.8
2023-01-04T04:04:20.464Z,1.8
2023-01-04T04:05:21.500Z,1.8
2023-01-04T04:06:22.520Z,1.8
2023-01-04T04:07:23.439Z,1.8
2023-01-04T04:08:24.494Z,1.8
2023-01-04T04:09:25.509Z,1.7
2023-01-04T04:10:26.475Z,1.8
2023-01-04T04:11:27.557Z,1.8
2023-01-04T04:12:28.461Z,1.8
2023-01-04T04:13:29.507Z,1.8
2023-01-04T04:14:30.494Z,1.7
2023-01-04T04:15:31.475Z,1.6
2023-01-04T04:16:32.584Z,1.4
2023-01-04T04:17:33.534Z,1.4
2023-01-04T04:18:34.475Z,1.3
2023-01-04T04:19:35.524Z,1.3
2023-01-04T04:20:36.487Z,1.2
2023-01-04T04:21:37.400Z,1.2
2023-01-04T04:22:38.494Z,1.3
2023-01-04T04:23:39.478Z,1.4
2023-01-04T04:24:40.501Z,1.4
2023-01-04T04:25:41.493Z,1.5
2023-01-04T04:26:42.478Z,1.5
2023-01-04T04:27:43.580Z,1.5
2023-01-04T04:28:44.515Z,1.6
2023-01-04T04:29:45.476Z,1.5
2023-01-04T04:30:46.451Z,1.5
2023-01-04T04:31:47.611Z,1.5
2023-01-04T04:32:48.476Z,1.5
2023-01-04T04:33:49.450Z,1.6
2023-01-04T04:34:50.507Z,1.6
2023-01-04T04:35:51.480Z,1.5
2023-01-04T04:36:53.462Z,1.5
2023-01-04T04:37:54.476Z,1.5
2023-01-04T04:38:55.495Z,1.5
2023-01-04T04:39:56.479Z,1.5
2023-01-04T04:40:57.515Z,1.5
2023-01-04T04:41:58.495Z,1.6
2023-01-04T04:42:59.505Z,1.7
2023-01-04T04:44:00.534Z,1.7
2023-01-04T04:45:01.514Z,1.7
2023-01-04T04:46:02.560Z,1.7
2023-01-04T04:47:03.515Z,1.6
2023-01-04T04:48:04.456Z,1.6
2023-01-04T04:49:05.493Z,1.6
2023-01-04T04:50:06.480Z,1.6
2023-01-04T04:51:07.477Z,1.6
2023-01-04T04:52:08.464Z,1.6
2023-01-04T04:53:09.463Z,1.6
2023-01-04T04:54:10.495Z,1.6
2023-01-04T04:55:11.529Z,1.5
2023-01-04T04:56:12.455Z,1.5
2023-01-04T04:57:13.514Z,1.5
2023-01-04T04:58:14.487Z,1.5
2023-01-04T04:59:15.534Z,1.4
2023-01-04T05:00:16.523Z,1.4
2023-01-04T05:01:17.574Z,1.4
2023-01-04T05:02:18.699Z,1.4
2023-01-04T05:03:19.575Z,1.3
2023-01-04T05:04:20.517Z,1.3
2023-01-04T05:05:21.536Z,1.2
2023-01-04T05:06:22.495Z,1.2
2023-01-04T05:07:23.519Z,1.2
2023-01-04T05:08:24.504Z,1.2
2023-01-04T05:09:25.533Z,1.2
2023-01-04T05:10:26.528Z,1.2
2023-01-04T05:11:27.595Z,1.2
2023-01-04T05:12:28.536Z,1.3
2023-01-04T05:13:29.495Z,1.2
2023-01-04T05:14:30.498Z,1.2
2023-01-04T05:15:31.516Z,1.2
2023-01-04T05:16:32.696Z,1.2
2023-01-04T05:17:33.515Z,1.2
2023-01-04T05:18:34.493Z,1.3
2023-01-04T05:19:35.550Z,1.2
2023-01-04T05:20:36.502Z,1.1
2023-01-04T05:21:37.561Z,1.1
2023-01-04T05:22:38.516Z,1.1
2023-01-04T05:23:39.515Z,1.1
2023-01-04T05:24:40.531Z,1.1
2023-01-04T05:25:41.537Z,1
2023-01-04T05:26:42.520Z,1
2023-01-04T05:27:43.507Z,0.9
2023-01-04T05:28:48.491Z,0.9
2023-01-04T05:29:45.495Z,0.8
2023-01-04T05:30:46.518Z,0.7
2023-01-04T05:31:47.595Z,0.7
2023-01-04T05:32:48.563Z,0.8
2023-01-04T05:33:49.555Z,0.9
2023-01-04T05:34:50.495Z,1
2023-01-04T05:35:51.515Z,1.1
2023-01-04T05:36:52.615Z,1.2
2023-01-04T05:37:53.499Z,1.2
2023-01-04T05:38:54.542Z,1.1
2023-01-04T05:39:55.591Z,1
2023-01-04T05:40:56.532Z,1
2023-01-04T05:41:57.519Z,1.1
2023-01-04T05:42:58.514Z,1.2
2023-01-04T05:43:59.572Z,1.3
2023-01-04T05:45:00.521Z,1.3
2023-01-04T05:46:01.620Z,1.4
2023-01-04T05:47:02.516Z,1.5
2023-01-04T05:48:03.523Z,1.6
2023-01-04T05:49:04.561Z,1.7
2023-01-04T05:50:05.529Z,1.8
2023-01-04T05:51:06.536Z,1.8
2023-01-04T05:52:07.538Z,1.7
2023-01-04T05:53:08.501Z,1.6
2023-01-04T05:54:09.538Z,1.6
2023-01-04T05:55:10.517Z,1.6
2023-01-04T05:56:11.605Z,1.5
2023-01-04T05:57:12.516Z,1.3
2023-01-04T05:58:13.543Z,1.4
2023-01-04T05:59:14.557Z,1.4
2023-01-04T06:00:15.547Z,1.5
2023-01-04T06:01:16.673Z,1.7
2023-01-04T06:02:17.704Z,1.7
2023-01-04T06:03:18.656Z,1.8
2023-01-04T06:04:19.556Z,1.9
2023-01-04T06:05:20.544Z,1.8
2023-01-04T06:06:21.552Z,1.8
2023-01-04T06:07:22.537Z,1.7
2023-01-04T06:08:23.579Z,1.7
2023-01-04T06:09:24.534Z,1.7
2023-01-04T06:10:25.536Z,1.7
2023-01-04T06:11:27.799Z,1.8
2023-01-04T06:12:27.600Z,1.9
2023-01-04T06:13:28.559Z,1.9
2023-01-04T06:14:29.538Z,2
2023-01-04T06:15:30.536Z,2.2
2023-01-04T06:16:31.661Z,2.2
2023-01-04T06:17:32.585Z,2.3
2023-01-04T06:18:33.557Z,2.3
2023-01-04T06:19:34.550Z,2.4
2023-01-04T06:20:35.561Z,2.5
2023-01-04T06:21:36.603Z,2.5
2023-01-04T06:22:37.583Z,2.6
2023-01-04T06:23:38.582Z,2.6
2023-01-04T06:24:39.557Z,2.6
2023-01-04T06:25:40.536Z,2.5
2023-01-04T06:26:41.559Z,2.4
2023-01-04T06:27:42.554Z,2.4
2023-01-04T06:28:43.588Z,2.5
2023-01-04T06:29:44.556Z,2.6
2023-01-04T06:30:45.625Z,2.7
2023-01-04T06:31:46.561Z,2.6
2023-01-04T06:32:47.541Z,2.7
2023-01-04T06:33:48.577Z,2.7
2023-01-04T06:34:49.523Z,2.7
2023-01-04T06:35:50.544Z,2.8
2023-01-04T06:36:51.555Z,2.9
2023-01-04T06:37:52.557Z,2.9
2023-01-04T06:38:53.535Z,2.9
2023-01-04T06:39:54.571Z,2.8
2023-01-04T06:40:55.586Z,2.9
2023-01-04T06:42:02.048Z,2.9
2023-01-04T06:42:57.556Z,2.9
2023-01-04T06:43:58.939Z,3
2023-01-04T06:44:59.556Z,3.1
2023-01-04T06:46:00.640Z,3
2023-01-04T06:47:01.564Z,3
2023-01-04T06:48:07.410Z,3
2023-01-04T06:49:03.537Z,3
2023-01-04T06:50:04.614Z,3
2023-01-04T06:51:05.535Z,3
2023-01-04T06:52:06.536Z,3
2023-01-04T06:53:07.557Z,3
2023-01-04T06:54:08.562Z,3.1
2023-01-04T06:55:09.808Z,3
2023-01-04T06:56:10.538Z,3
2023-01-04T06:57:11.619Z,3.1
2023-01-04T06:58:12.555Z,3.1
2023-01-04T06:59:13.555Z,3.1
2023-01-04T07:00:14.638Z,3.1
2023-01-04T07:01:15.667Z,3
2023-01-04T07:02:18.721Z,3.1
2023-01-04T07:03:17.668Z,3.1
2023-01-04T07:04:18.631Z,3.2
2023-01-04T07:05:19.599Z,3.2
2023-01-04T07:06:20.562Z,3.2
2023-01-04T07:07:21.595Z,3.2
2023-01-04T07:08:22.520Z,3.2
2023-01-04T07:09:23.569Z,3.2
2023-01-04T07:10:24.554Z,3.2
2023-01-04T07:11:25.526Z,3.2
2023-01-04T07:12:26.587Z,3.2
2023-01-04T07:13:27.595Z,3.2
2023-01-04T07:14:28.557Z,3.1
2023-01-04T07:15:39.884Z,3.2
2023-01-04T07:16:30.604Z,3.1
2023-01-04T07:17:31.605Z,3
2023-01-04T07:18:32.574Z,2.9
2023-01-04T07:19:33.556Z,3
2023-01-04T07:20:34.579Z,3
2023-01-04T07:21:35.599Z,3
2023-01-04T07:22:36.602Z,3
2023-01-04T07:23:37.516Z,3.1
2023-01-04T07:24:38.576Z,3.1
2023-01-04T07:25:39.593Z,3.1
2023-01-04T07:26:40.555Z,3.2
2023-01-04T07:27:41.562Z,3.2
2023-01-04T07:28:42.591Z,3.2
2023-01-04T07:29:43.576Z,3.2
2023-01-04T07:30:44.667Z,3.2
2023-01-04T07:31:45.600Z,3.3
2023-01-04T07:32:46.556Z,3.2
2023-01-04T07:33:47.562Z,3.3
2023-01-04T07:34:48.615Z,3.2
2023-01-04T07:35:49.572Z,3.2
2023-01-04T07:36:50.590Z,3.2
2023-01-04T07:37:57.740Z,3.3
2023-01-04T07:38:52.593Z,3.3
2023-01-04T07:39:53.661Z,3.2
2023-01-04T07:40:55.710Z,3.2
2023-01-04T07:41:55.551Z,3.2
2023-01-04T07:42:56.660Z,3.1
2023-01-04T07:43:57.557Z,3.1
2023-01-04T07:44:59.024Z,3.1
2023-01-04T07:45:59.623Z,3.1
2023-01-04T07:47:00.575Z,3.1
2023-01-04T07:48:01.605Z,3.2
2023-01-04T07:49:02.597Z,3.2
2023-01-04T07:50:03.665Z,3.2
2023-01-04T07:51:04.596Z,3.2
2023-01-04T07:52:05.540Z,3.3
2023-01-04T07:53:06.555Z,3.3
2023-01-04T07:54:07.596Z,3.3
2023-01-04T07:55:08.615Z,3.3
2023-01-04T07:56:13.717Z,3.3
2023-01-04T07:57:10.576Z,3.3
2023-01-04T07:58:11.620Z,3.4
2023-01-04T07:59:12.581Z,3.4
2023-01-04T08:00:13.601Z,3.5
2023-01-04T08:01:14.749Z,3.6
2023-01-04T08:02:15.797Z,3.8
2023-01-04T08:03:16.583Z,3.8
2023-01-04T08:04:17.692Z,3.9
2023-01-04T08:05:18.692Z,3.9
2023-01-04T08:06:19.627Z,4
2023-01-04T08:07:20.660Z,3.9
2023-01-04T08:08:21.669Z,4
2023-01-04T08:09:22.579Z,4.1
2023-01-04T08:10:23.576Z,4.1
2023-01-04T08:11:24.654Z,4.1
2023-01-04T08:12:25.636Z,4.1
2023-01-04T08:13:26.602Z,4.2
2023-01-04T08:14:27.655Z,4.2
2023-01-04T08:15:28.784Z,4.3
2023-01-04T08:16:29.720Z,4.4
2023-01-04T08:17:30.617Z,4.5
2023-01-04T08:18:31.646Z,4.6
2023-01-04T08:19:32.576Z,4.6
2023-01-04T08:20:33.641Z,4.7
2023-01-04T08:21:34.842Z,4.8
2023-01-04T08:22:35.594Z,4.9
2023-01-04T08:23:36.633Z,4.8
2023-01-04T08:24:37.620Z,4.8
2023-01-04T08:25:38.575Z,4.9
2023-01-04T08:26:39.585Z,4.9
2023-01-04T08:27:40.602Z,4.9
2023-01-04T08:28:41.639Z,4.8
2023-01-04T08:29:42.612Z,4.9
2023-01-04T08:30:43.584Z,5
2023-01-04T08:31:44.724Z,5.1
2023-01-04T08:32:45.654Z,5.2
2023-01-04T08:33:46.610Z,5.2
2023-01-04T08:34:47.600Z,5.1
2023-01-04T08:35:48.617Z,5.1
2023-01-04T08:36:49.642Z,5.2
2023-01-04T08:37:50.674Z,5.2
2023-01-04T08:39:00.767Z,5.2
2023-01-04T08:39:52.623Z,5.2
2023-01-04T08:40:58.346Z,5.1
2023-01-04T08:42:01.057Z,5
2023-01-04T08:42:55.589Z,5
2023-01-04T08:43:56.652Z,5.2
2023-01-04T08:44:59.696Z,5.2
2023-01-04T08:45:59.135Z,5.3
2023-01-04T08:47:00.799Z,5.4
2023-01-04T08:48:01.635Z,5.2
2023-01-04T08:49:02.596Z,5.1
2023-01-04T08:50:10.153Z,5.2
2023-01-04T08:51:04.650Z,5.2
2023-01-04T08:52:05.676Z,5.3
2023-01-04T08:53:06.614Z,5.3
2023-01-04T08:54:07.619Z,5.3
2023-01-04T08:55:12.877Z,5.4
2023-01-04T08:56:09.640Z,5.4
2023-01-04T08:57:10.617Z,5.4
2023-01-04T08:58:11.731Z,5.4
2023-01-04T08:59:12.678Z,5.5
2023-01-04T09:00:13.639Z,5.6
2023-01-04T09:01:14.760Z,5.6
2023-01-04T09:02:15.758Z,5.6
2023-01-04T09:03:16.721Z,5.6
2023-01-04T09:04:17.722Z,5.5
2023-01-04T09:05:22.158Z,5.5
2023-01-04T09:06:19.636Z,5.5
2023-01-04T09:07:20.621Z,5.4
2023-01-04T09:08:21.603Z,5.4
2023-01-04T09:09:22.686Z,5.4
2023-01-04T09:10:23.746Z,5.4
2023-01-04T09:11:24.622Z,5.4
2023-01-04T09:12:25.577Z,5.4
2023-01-04T09:13:26.616Z,5.3
2023-01-04T09:14:27.654Z,5.3
2023-01-04T09:15:28.660Z,5.3
2023-01-04T09:16:29.659Z,5.3
2023-01-04T09:17:30.649Z,5.2
2023-01-04T09:18:33.915Z,5.2
2023-01-04T09:19:32.702Z,5.2
2023-01-04T09:20:33.635Z,5.2
2023-01-04T09:21:34.722Z,5.3
2023-01-04T09:22:35.674Z,5.4
2023-01-04T09:23:36.646Z,5.4
2023-01-04T09:24:37.696Z,5.4
2023-01-04T09:25:38.597Z,5.5
2023-01-04T09:26:39.636Z,5.6
2023-01-04T09:27:40.655Z,5.6
2023-01-04T09:28:41.597Z,5.6
2023-01-04T09:29:42.698Z,5.6
2023-01-04T09:30:43.677Z,5.6
2023-01-04T09:31:44.689Z,5.6
2023-01-04T09:32:45.662Z,5.7
2023-01-04T09:34:13.828Z,5.8
2023-01-04T09:34:47.724Z,5.8
2023-01-04T09:35:48.639Z,5.8
2023-01-04T09:36:49.635Z,5.8
2023-01-04T09:37:50.624Z,5.8
2023-01-04T09:38:51.655Z,5.9
2023-01-04T09:39:52.607Z,5.9
2023-01-04T09:40:53.638Z,5.8
2023-01-04T09:41:54.645Z,5.8
2023-01-04T09:43:20.716Z,5.9
2023-01-04T09:43:56.645Z,5.9
2023-01-04T09:45:23.432Z,5.9
2023-01-04T09:45:59.144Z,5.9
2023-01-04T09:47:00.616Z,6
2023-01-04T09:48:01.618Z,6
2023-01-04T09:49:03.261Z,6
2023-01-04T09:50:04.695Z,6
2023-01-04T09:51:05.661Z,6.1
2023-01-04T09:52:06.645Z,6.1
2023-01-04T09:53:07.675Z,6.1
2023-01-04T09:54:08.655Z,6.1
2023-01-04T09:55:38.482Z,6.2
2023-01-04T09:56:10.643Z,6.2
2023-01-04T09:57:11.634Z,6.3
2023-01-04T09:58:12.636Z,6.3
2023-01-04T09:59:13.675Z,6.2
2023-01-04T10:00:14.827Z,6.2
2023-01-04T10:01:15.792Z,6.2
2023-01-04T10:02:16.822Z,6.3
2023-01-04T10:03:17.803Z,6.3
2023-01-04T10:04:18.735Z,6.2
2023-01-04T10:05:19.679Z,6.1
2023-01-04T10:06:20.665Z,6.2
2023-01-04T10:07:21.675Z,6.2
2023-01-04T10:08:22.643Z,6.3
2023-01-04T10:09:23.677Z,6.4
2023-01-04T10:10:24.675Z,6.6
2023-01-04T10:11:25.658Z,6.7
2023-01-04T10:12:26.639Z,6.8
2023-01-04T10:13:27.614Z,6.8
2023-01-04T10:14:28.723Z,6.8
2023-01-04T10:15:29.720Z,6.8
2023-01-04T10:17:01.469Z,6.9
2023-01-04T10:17:57.855Z,6.9
2023-01-04T10:21:35.849Z,6.9
2023-01-04T10:22:36.658Z,7
2023-01-04T10:23:37.639Z,7.2
2023-01-04T10:24:38.604Z,7.2
2023-01-04T10:25:39.674Z,7.3
2023-01-04T10:26:40.698Z,7.4
2023-01-04T10:27:42.970Z,7.3
2023-01-04T10:28:42.676Z,7.2
2023-01-04T10:29:43.638Z,7.2
2023-01-04T10:30:44.964Z,7.1
2023-01-04T10:31:45.711Z,7.2
2023-01-04T10:32:46.735Z,7.2
2023-01-04T10:33:47.695Z,7.2
2023-01-04T10:34:48.695Z,7.3
2023-01-04T10:35:49.671Z,7.3
2023-01-04T10:36:50.679Z,7.4
2023-01-04T10:37:51.663Z,7.5
2023-01-04T10:38:52.662Z,7.6
2023-01-04T10:39:53.635Z,7.6
2023-01-04T10:40:54.737Z,7.5
2023-01-04T10:41:55.675Z,7.5
2023-01-04T10:42:56.664Z,7.5
2023-01-04T10:44:10.186Z,7.5
2023-01-04T10:45:03.437Z,7.6
2023-01-04T10:46:00.741Z,7.5
2023-01-04T10:47:01.690Z,7.5
2023-01-04T10:48:02.653Z,7.3
2023-01-04T10:49:03.694Z,7.1
2023-01-04T10:50:04.630Z,7
2023-01-04T10:51:10.094Z,7
2023-01-04T10:52:06.674Z,7
2023-01-04T10:53:07.653Z,7
2023-01-04T10:54:08.673Z,7
2023-01-04T10:55:09.658Z,7.1
2023-01-04T10:56:24.866Z,7.2
2023-01-04T10:57:12.642Z,7.2
2023-01-04T10:58:13.662Z,7.2
2023-01-04T10:59:14.655Z,7.3
2023-01-04T11:00:15.665Z,7.3
2023-01-04T11:01:16.813Z,7.3
2023-01-04T11:02:17.911Z,7.3
2023-01-04T11:03:18.837Z,7.3
2023-01-04T11:04:19.655Z,7.2
2023-01-04T11:05:20.775Z,7.2
2023-01-04T11:06:21.675Z,7.2
2023-01-04T11:07:22.715Z,7.2
2023-01-04T11:08:23.665Z,7.2
2023-01-04T11:09:25.518Z,7.1
2023-01-04T11:10:25.630Z,7
2023-01-04T11:11:26.676Z,6.9
2023-01-04T11:12:27.716Z,6.8
2023-01-04T11:13:28.675Z,6.8
2023-01-04T11:14:35.221Z,6.8
2023-01-04T11:15:30.689Z,6.8
2023-01-04T11:16:31.744Z,6.8
2023-01-04T11:17:32.695Z,6.8
2023-01-04T11:18:33.674Z,6.8
2023-01-04T11:19:34.705Z,6.8
2023-01-04T11:20:38.213Z,6.8
2023-01-04T11:21:36.734Z,6.7
2023-01-04T11:22:37.722Z,6.8
2023-01-04T11:23:38.690Z,6.8
2023-01-04T11:24:48.714Z,6.8
2023-01-04T11:25:40.657Z,6.8
2023-01-04T11:26:41.660Z,6.8
2023-01-04T11:27:42.715Z,6.8
2023-01-04T11:28:43.689Z,6.9
2023-01-04T11:29:44.733Z,6.8
2023-01-04T11:30:45.657Z,6.9
2023-01-04T11:31:46.740Z,6.9
2023-01-04T11:32:47.716Z,6.9
2023-01-04T11:33:48.750Z,7
2023-01-04T11:34:49.778Z,7
2023-01-04T11:35:50.773Z,7
2023-01-04T11:36:51.764Z,7
2023-01-04T11:37:52.737Z,7
2023-01-04T11:38:53.734Z,7.1
2023-01-04T11:39:54.675Z,7.1
2023-01-04T11:40:55.695Z,7.2
2023-01-04T11:42:02.501Z,7.2
2023-01-04T11:42:57.695Z,7.2
2023-01-04T11:43:58.739Z,7.2
2023-01-04T11:44:59.683Z,7.4
2023-01-04T11:46:00.710Z,7.2
2023-01-04T11:47:01.680Z,7.2
2023-01-04T11:48:02.695Z,7.2
2023-01-04T11:49:03.747Z,7.2
2023-01-04T11:50:04.676Z,7.1
2023-01-04T11:51:05.705Z,7.1
2023-01-04T11:52:06.664Z,7
2023-01-04T11:53:07.701Z,6.9
2023-01-04T11:54:08.695Z,6.9
2023-01-04T11:55:09.690Z,6.9
2023-01-04T11:56:10.674Z,6.9
2023-01-04T11:57:12.406Z,6.9
2023-01-04T11:58:12.676Z,6.8
2023-01-04T11:59:16.639Z,6.7
2023-01-04T12:00:14.773Z,6.7
2023-01-04T12:01:15.728Z,6.8
2023-01-04T12:02:35.129Z,6.8
2023-01-04T12:03:17.757Z,6.8
2023-01-04T12:04:18.723Z,6.7
2023-01-04T12:05:24.490Z,6.8
2023-01-04T12:06:20.726Z,6.8
2023-01-04T12:07:21.681Z,6.8
2023-01-04T12:08:22.774Z,6.8
2023-01-04T12:09:23.720Z,6.9
2023-01-04T12:10:24.762Z,6.9
2023-01-04T12:11:25.682Z,6.8
2023-01-04T12:12:26.702Z,6.8
2023-01-04T12:13:27.719Z,6.8
2023-01-04T12:14:28.725Z,6.8
2023-01-04T12:15:29.718Z,6.7
2023-01-04T12:16:30.716Z,6.7
2023-01-04T12:17:31.782Z,6.6
2023-01-04T12:18:32.694Z,6.6
2023-01-04T12:19:33.736Z,6.6
2023-01-04T12:20:34.837Z,6.6
2023-01-04T12:21:35.735Z,6.6
2023-01-04T12:22:36.695Z,6.6
2023-01-04T12:23:37.680Z,6.7
2023-01-04T12:24:38.974Z,6.8
2023-01-04T12:25:39.735Z,6.8
2023-01-04T12:26:40.704Z,6.9
2023-01-04T12:27:41.695Z,6.9
2023-01-04T12:28:42.700Z,7
2023-01-04T12:29:43.719Z,6.9
2023-01-04T12:30:44.715Z,6.8
2023-01-04T12:31:45.700Z,6.9
2023-01-04T12:32:46.742Z,6.8
2023-01-04T12:33:47.705Z,6.8
2023-01-04T12:34:48.743Z,6.8
2023-01-04T12:35:49.735Z,6.7
2023-01-04T12:36:50.733Z,6.7
2023-01-04T12:37:51.762Z,6.7
2023-01-04T12:38:52.743Z,6.7
2023-01-04T12:39:53.731Z,6.8
2023-01-04T12:40:54.759Z,6.8
2023-01-04T12:41:55.739Z,6.8
2023-01-04T12:42:56.697Z,6.9
2023-01-04T12:43:57.709Z,7
2023-01-04T12:44:58.695Z,7
2023-01-04T12:45:59.747Z,7
2023-01-04T12:47:00.746Z,7.1
2023-01-04T12:48:01.740Z,7.1
2023-01-04T12:49:02.696Z,7.2
2023-01-04T12:50:03.738Z,7.2
2023-01-04T12:51:21.990Z,7.2
2023-01-04T12:52:29.322Z,7.2
2023-01-04T12:53:31.380Z,7.2
2023-01-04T12:54:07.765Z,7.2
2023-01-04T12:55:08.765Z,7.2
2023-01-04T12:56:09.817Z,7.2
2023-01-04T12:57:10.724Z,7.2
2023-01-04T12:58:11.755Z,7.2
2023-01-04T12:59:25.015Z,7.2
2023-01-04T13:00:13.804Z,7.1
2023-01-04T13:01:14.894Z,7
2023-01-04T13:02:15.932Z,6.9
2023-01-04T13:03:17.463Z,6.9
2023-01-04T13:04:18.754Z,6.9
2023-01-04T13:06:20.779Z,6.7
2023-01-04T13:07:21.714Z,6.7
2023-01-04T13:08:22.739Z,6.7
2023-01-04T13:09:25.137Z,6.7
2023-01-04T13:10:24.755Z,6.7
2023-01-04T13:11:25.795Z,6.7
2023-01-04T13:12:26.756Z,6.7
2023-01-04T13:13:27.735Z,6.7
2023-01-04T13:14:28.736Z,6.7
2023-01-04T13:15:29.736Z,6.6
2023-01-04T13:16:30.862Z,6.6
2023-01-04T13:17:31.784Z,6.6
2023-01-04T13:18:32.783Z,6.5
2023-01-04T13:19:33.748Z,6.4
2023-01-04T13:20:34.702Z,6.3
2023-01-04T13:21:35.734Z,6.3
2023-01-04T13:22:36.755Z,6.4
2023-01-04T13:23:37.814Z,6.4
2023-01-04T13:24:38.776Z,6.4
2023-01-04T13:25:39.733Z,6.4
2023-01-04T13:26:40.758Z,6.5
2023-01-04T13:27:41.716Z,6.5
2023-01-04T13:28:42.741Z,6.4
2023-01-04T13:29:44.161Z,6.5
2023-01-04T13:30:44.840Z,6.5
2023-01-04T13:31:45.853Z,6.4
2023-01-04T13:33:15.349Z,6.4
2023-01-04T13:33:47.766Z,6.3
2023-01-04T13:34:48.777Z,6.3
2023-01-04T13:35:49.833Z,6.2
2023-01-04T13:36:50.734Z,6.2
2023-01-04T13:37:51.761Z,6.3
2023-01-04T13:38:52.746Z,6.3
2023-01-04T13:39:53.837Z,6.3
2023-01-04T13:40:54.826Z,6.3
2023-01-04T13:41:55.740Z,6.2
2023-01-04T13:42:56.755Z,6.3
2023-01-04T13:43:57.759Z,6.3
2023-01-04T13:46:05.657Z,6.5
2023-01-04T13:47:00.788Z,6.5
2023-01-04T13:48:01.773Z,6.4
2023-01-04T13:49:02.792Z,6.4
2023-01-04T13:50:03.779Z,6.4
2023-01-04T13:51:04.955Z,6.5
2023-01-04T13:52:26.277Z,6.5
2023-01-04T13:53:08.615Z,6.5
2023-01-04T13:54:07.876Z,6.5
2023-01-04T13:55:09.112Z,6.5
2023-01-04T13:56:09.795Z,6.6
2023-01-04T13:57:10.764Z,6.5
2023-01-04T13:58:11.817Z,6.5
2023-01-04T13:59:12.717Z,6.5
2023-01-04T14:00:13.715Z,6.4
2023-01-04T14:01:14.902Z,6.3
2023-01-04T14:02:16.016Z,6.3
2023-01-04T14:03:16.898Z,6.3
2023-01-04T14:04:17.803Z,6.2
2023-01-04T14:05:18.778Z,6.3
2023-01-04T14:06:19.813Z,6.3
2023-01-04T14:07:21.798Z,6.2
2023-01-04T14:08:22.738Z,6.2
2023-01-04T14:09:23.758Z,6.1
2023-01-04T14:10:24.777Z,6.1
2023-01-04T14:11:25.767Z,6.1
2023-01-04T14:12:26.842Z,6
2023-01-04T14:13:27.745Z,5.9
2023-01-04T14:14:28.731Z,5.9
2023-01-04T14:15:29.757Z,5.9
2023-01-04T14:16:30.782Z,6
2023-01-04T14:17:31.795Z,6